sensor_id;sensor_type;location;lat;lon;timestamp;P1;durP1;ratioP1;P2;durP2;ratioP2
80586;SDS011;69943;20.850;106.728;2024-03-08T00:00:37;46.00;;;32.20;;
80586;SDS011;69943;20.850;106.728;2024-03-08T00:03:44;53.50;;;33.60;;
80586;SDS011;69943;20.850;106.728;2024-03-08T00:06:16;47.20;;;31.70;;
80586;SDS011;69943;20.850;106.728;2024-03-08T00:08:48;45.40;;;30.30;;
80586;SDS011;69943;20.850;106.728;2024-03-08T00:11:21;49.00;;;32.00;;
80586;SDS011;69943;20.850;106.728;2024-03-08T00:13:56;51.50;;;30.20;;
80586;SDS011;69943;20.850;106.728;2024-03-08T00:16:28;43.60;;;30.10;;
80586;SDS011;69943;20.850;106.728;2024-03-08T00:19:00;46.10;;;29.10;;
80586;SDS011;69943;20.850;106.728;2024-03-08T00:21:33;41.20;;;30.60;;
80586;SDS011;69943;20.850;106.728;2024-03-08T00:24:05;45.50;;;32.20;;
80586;SDS011;69943;20.850;106.728;2024-03-08T00:26:37;42.20;;;29.00;;
80586;SDS011;69943;20.850;106.728;2024-03-08T00:29:09;39.60;;;29.10;;
80586;SDS011;69943;20.850;106.728;2024-03-08T00:31:43;43.20;;;30.50;;
80586;SDS011;69943;20.850;106.728;2024-03-08T00:34:16;44.90;;;29.40;;
80586;SDS011;69943;20.850;106.728;2024-03-08T00:36:48;44.60;;;29.30;;
80586;SDS011;69943;20.850;106.728;2024-03-08T00:39:20;42.30;;;28.30;;
80586;SDS011;69943;20.850;106.728;2024-03-08T00:41:53;40.20;;;27.90;;
80586;SDS011;69943;20.850;106.728;2024-03-08T00:44:25;43.30;;;27.20;;
80586;SDS011;69943;20.850;106.728;2024-03-08T00:46:57;42.20;;;28.70;;
80586;SDS011;69943;20.850;106.728;2024-03-08T00:49:30;35.90;;;26.50;;
80586;SDS011;69943;20.850;106.728;2024-03-08T00:52:02;42.40;;;27.50;;
80586;SDS011;69943;20.850;106.728;2024-03-08T00:54:36;38.10;;;28.40;;
80586;SDS011;69943;20.850;106.728;2024-03-08T00:57:08;43.10;;;29.10;;
80586;SDS011;69943;20.850;106.728;2024-03-08T00:59:40;37.40;;;26.20;;
80586;SDS011;69943;20.850;106.728;2024-03-08T01:02:12;39.80;;;27.00;;
80586;SDS011;69943;20.850;106.728;2024-03-08T01:04:44;36.50;;;28.00;;
80586;SDS011;69943;20.850;106.728;2024-03-08T01:07:17;36.90;;;26.30;;
80586;SDS011;69943;20.850;106.728;2024-03-08T01:09:50;43.40;;;27.70;;
80586;SDS011;69943;20.850;106.728;2024-03-08T01:12:22;39.20;;;26.30;;
80586;SDS011;69943;20.850;106.728;2024-03-08T01:14:54;40.00;;;26.90;;
80586;SDS011;69943;20.850;106.728;2024-03-08T01:17:29;38.70;;;27.60;;
80586;SDS011;69943;20.850;106.728;2024-03-08T01:20:02;40.00;;;26.30;;
80586;SDS011;69943;20.850;106.728;2024-03-08T01:22:35;39.20;;;29.20;;
80586;SDS011;69943;20.850;106.728;2024-03-08T01:25:07;38.30;;;26.00;;
80586;SDS011;69943;20.850;106.728;2024-03-08T01:27:40;40.40;;;26.30;;
80586;SDS011;69943;20.850;106.728;2024-03-08T01:30:12;39.00;;;27.30;;
80586;SDS011;69943;20.850;106.728;2024-03-08T01:32:46;37.60;;;26.50;;
80586;SDS011;69943;20.850;106.728;2024-03-08T01:35:19;39.10;;;26.70;;
80586;SDS011;69943;20.850;106.728;2024-03-08T01:37:53;36.10;;;25.40;;
80586;SDS011;69943;20.850;106.728;2024-03-08T01:40:25;35.20;;;25.90;;
80586;SDS011;69943;20.850;106.728;2024-03-08T01:43:14;40.70;;;26.60;;
80586;SDS011;69943;20.850;106.728;2024-03-08T01:45:50;34.30;;;25.50;;
80586;SDS011;69943;20.850;106.728;2024-03-08T01:48:23;34.60;;;24.70;;
80586;SDS011;69943;20.850;106.728;2024-03-08T01:50:55;35.80;;;24.50;;
80586;SDS011;69943;20.850;106.728;2024-03-08T01:53:28;34.20;;;25.40;;
80586;SDS011;69943;20.850;106.728;2024-03-08T01:56:01;31.50;;;24.20;;
80586;SDS011;69943;20.850;106.728;2024-03-08T01:58:33;40.20;;;26.80;;
80586;SDS011;69943;20.850;106.728;2024-03-08T02:01:06;33.60;;;23.70;;
80586;SDS011;69943;20.850;106.728;2024-03-08T02:03:40;35.20;;;24.70;;
80586;SDS011;69943;20.850;106.728;2024-03-08T02:06:14;35.50;;;23.50;;
80586;SDS011;69943;20.850;106.728;2024-03-08T02:08:47;38.00;;;27.40;;
80586;SDS011;69943;20.850;106.728;2024-03-08T02:11:19;32.90;;;24.20;;
80586;SDS011;69943;20.850;106.728;2024-03-08T02:13:52;34.60;;;25.40;;
80586;SDS011;69943;20.850;106.728;2024-03-08T02:16:24;34.80;;;25.30;;
80586;SDS011;69943;20.850;106.728;2024-03-08T02:18:56;41.20;;;26.40;;
80586;SDS011;69943;20.850;106.728;2024-03-08T02:21:28;36.60;;;25.80;;
80586;SDS011;69943;20.850;106.728;2024-03-08T02:24:00;33.00;;;24.20;;
80586;SDS011;69943;20.850;106.728;2024-03-08T02:26:33;35.80;;;25.10;;
80586;SDS011;69943;20.850;106.728;2024-03-08T02:29:05;33.20;;;23.70;;
80586;SDS011;69943;20.850;106.728;2024-03-08T02:31:37;36.30;;;25.40;;
80586;SDS011;69943;20.850;106.728;2024-03-08T02:34:10;35.90;;;25.20;;
80586;SDS011;69943;20.850;106.728;2024-03-08T02:36:42;37.30;;;24.10;;
80586;SDS011;69943;20.850;106.728;2024-03-08T02:39:15;42.10;;;26.40;;
80586;SDS011;69943;20.850;106.728;2024-03-08T02:41:47;37.30;;;24.90;;
80586;SDS011;69943;20.850;106.728;2024-03-08T02:44:19;37.10;;;26.00;;
80586;SDS011;69943;20.850;106.728;2024-03-08T02:46:52;38.20;;;24.40;;
80586;SDS011;69943;20.850;106.728;2024-03-08T02:49:26;37.20;;;25.10;;
80586;SDS011;69943;20.850;106.728;2024-03-08T02:51:58;38.20;;;26.10;;
80586;SDS011;69943;20.850;106.728;2024-03-08T02:54:30;35.80;;;25.40;;
80586;SDS011;69943;20.850;106.728;2024-03-08T02:57:02;36.20;;;25.00;;
80586;SDS011;69943;20.850;106.728;2024-03-08T02:59:34;32.20;;;23.90;;
80586;SDS011;69943;20.850;106.728;2024-03-08T03:02:10;36.40;;;25.00;;
80586;SDS011;69943;20.850;106.728;2024-03-08T03:04:42;36.00;;;24.20;;
80586;SDS011;69943;20.850;106.728;2024-03-08T03:07:14;35.70;;;25.90;;
80586;SDS011;69943;20.850;106.728;2024-03-08T03:09:47;38.30;;;26.80;;
80586;SDS011;69943;20.850;106.728;2024-03-08T03:12:19;35.60;;;25.40;;
80586;SDS011;69943;20.850;106.728;2024-03-08T03:14:51;37.50;;;26.60;;
80586;SDS011;69943;20.850;106.728;2024-03-08T03:17:24;39.10;;;25.50;;
80586;SDS011;69943;20.850;106.728;2024-03-08T03:19:56;36.40;;;24.90;;
80586;SDS011;69943;20.850;106.728;2024-03-08T03:22:28;40.40;;;26.30;;
80586;SDS011;69943;20.850;106.728;2024-03-08T03:25:01;37.30;;;27.70;;
80586;SDS011;69943;20.850;106.728;2024-03-08T03:27:38;39.10;;;26.30;;
80586;SDS011;69943;20.850;106.728;2024-03-08T03:30:11;40.10;;;27.40;;
80586;SDS011;69943;20.850;106.728;2024-03-08T03:32:53;37.10;;;26.30;;
80586;SDS011;69943;20.850;106.728;2024-03-08T03:35:28;40.30;;;27.30;;
80586;SDS011;69943;20.850;106.728;2024-03-08T03:38:00;37.50;;;25.90;;
80586;SDS011;69943;20.850;106.728;2024-03-08T03:40:37;42.70;;;28.00;;
80586;SDS011;69943;20.850;106.728;2024-03-08T03:43:09;36.30;;;26.80;;
80586;SDS011;69943;20.850;106.728;2024-03-08T03:45:41;41.30;;;27.10;;
80586;SDS011;69943;20.850;106.728;2024-03-08T03:48:14;38.70;;;27.60;;
80586;SDS011;69943;20.850;106.728;2024-03-08T03:50:46;41.00;;;26.70;;
80586;SDS011;69943;20.850;106.728;2024-03-08T03:53:18;43.80;;;28.10;;
80586;SDS011;69943;20.850;106.728;2024-03-08T03:55:50;37.40;;;25.20;;
80586;SDS011;69943;20.850;106.728;2024-03-08T03:58:22;39.80;;;25.70;;
80586;SDS011;69943;20.850;106.728;2024-03-08T04:00:54;41.60;;;27.10;;
80586;SDS011;69943;20.850;106.728;2024-03-08T04:03:27;36.10;;;25.30;;
80586;SDS011;69943;20.850;106.728;2024-03-08T04:05:59;38.10;;;25.40;;
80586;SDS011;69943;20.850;106.728;2024-03-08T04:08:32;36.70;;;26.60;;
80586;SDS011;69943;20.850;106.728;2024-03-08T04:11:04;37.70;;;27.00;;
80586;SDS011;69943;20.850;106.728;2024-03-08T04:13:36;39.20;;;25.90;;
80586;SDS011;69943;20.850;106.728;2024-03-08T04:16:08;40.10;;;28.10;;
80586;SDS011;69943;20.850;106.728;2024-03-08T04:18:42;37.60;;;25.20;;
80586;SDS011;69943;20.850;106.728;2024-03-08T04:21:14;37.20;;;26.40;;
80586;SDS011;69943;20.850;106.728;2024-03-08T04:23:46;40.80;;;26.80;;
80586;SDS011;69943;20.850;106.728;2024-03-08T04:26:18;40.70;;;26.20;;
80586;SDS011;69943;20.850;106.728;2024-03-08T04:28:51;40.60;;;26.30;;
80586;SDS011;69943;20.850;106.728;2024-03-08T04:31:23;39.90;;;26.00;;
80586;SDS011;69943;20.850;106.728;2024-03-08T04:33:58;36.40;;;26.10;;
80586;SDS011;69943;20.850;106.728;2024-03-08T04:36:30;34.10;;;26.70;;
80586;SDS011;69943;20.850;106.728;2024-03-08T04:39:02;37.10;;;26.20;;
80586;SDS011;69943;20.850;106.728;2024-03-08T04:41:34;39.10;;;27.50;;
80586;SDS011;69943;20.850;106.728;2024-03-08T04:44:09;41.80;;;26.10;;
80586;SDS011;69943;20.850;106.728;2024-03-08T04:46:43;36.40;;;26.10;;
80586;SDS011;69943;20.850;106.728;2024-03-08T04:49:16;37.30;;;26.40;;
80586;SDS011;69943;20.850;106.728;2024-03-08T04:51:48;40.30;;;25.70;;
80586;SDS011;69943;20.850;106.728;2024-03-08T04:54:21;37.50;;;25.90;;
80586;SDS011;69943;20.850;106.728;2024-03-08T04:56:54;38.40;;;26.30;;
80586;SDS011;69943;20.850;106.728;2024-03-08T04:59:27;37.50;;;27.20;;
80586;SDS011;69943;20.850;106.728;2024-03-08T05:01:59;41.00;;;26.50;;
80586;SDS011;69943;20.850;106.728;2024-03-08T05:04:31;37.10;;;27.70;;
80586;SDS011;69943;20.850;106.728;2024-03-08T05:07:04;43.30;;;27.70;;
80586;SDS011;69943;20.850;106.728;2024-03-08T05:09:36;40.40;;;29.00;;
80586;SDS011;69943;20.850;106.728;2024-03-08T05:12:08;39.00;;;26.50;;
80586;SDS011;69943;20.850;106.728;2024-03-08T05:14:40;36.00;;;27.00;;
80586;SDS011;69943;20.850;106.728;2024-03-08T05:17:12;37.00;;;27.30;;
80586;SDS011;69943;20.850;106.728;2024-03-08T05:19:44;37.80;;;25.80;;
80586;SDS011;69943;20.850;106.728;2024-03-08T05:22:17;44.00;;;27.20;;
80586;SDS011;69943;20.850;106.728;2024-03-08T05:24:49;40.10;;;28.00;;
80586;SDS011;69943;20.850;106.728;2024-03-08T05:27:21;40.70;;;28.20;;
80586;SDS011;69943;20.850;106.728;2024-03-08T05:29:54;42.50;;;28.50;;
80586;SDS011;69943;20.850;106.728;2024-03-08T05:32:26;39.40;;;27.00;;
80586;SDS011;69943;20.850;106.728;2024-03-08T05:34:58;40.70;;;29.30;;
80586;SDS011;69943;20.850;106.728;2024-03-08T05:37:30;37.00;;;27.40;;
80586;SDS011;69943;20.850;106.728;2024-03-08T05:40:03;38.70;;;27.70;;
80586;SDS011;69943;20.850;106.728;2024-03-08T05:42:39;41.50;;;28.10;;
80586;SDS011;69943;20.850;106.728;2024-03-08T05:45:11;37.90;;;26.50;;
80586;SDS011;69943;20.850;106.728;2024-03-08T05:47:45;38.10;;;28.80;;
80586;SDS011;69943;20.850;106.728;2024-03-08T05:50:18;36.40;;;27.50;;
80586;SDS011;69943;20.850;106.728;2024-03-08T05:52:50;40.10;;;27.30;;
80586;SDS011;69943;20.850;106.728;2024-03-08T05:55:23;35.80;;;26.80;;
80586;SDS011;69943;20.850;106.728;2024-03-08T05:57:55;37.00;;;25.60;;
80586;SDS011;69943;20.850;106.728;2024-03-08T06:00:27;38.40;;;29.70;;
80586;SDS011;69943;20.850;106.728;2024-03-08T06:03:02;37.80;;;28.30;;
80586;SDS011;69943;20.850;106.728;2024-03-08T06:05:34;41.90;;;29.60;;
80586;SDS011;69943;20.850;106.728;2024-03-08T06:08:06;42.50;;;27.20;;
80586;SDS011;69943;20.850;106.728;2024-03-08T06:10:38;40.30;;;26.60;;
80586;SDS011;69943;20.850;106.728;2024-03-08T06:13:11;38.40;;;26.60;;
80586;SDS011;69943;20.850;106.728;2024-03-08T06:15:43;41.90;;;28.30;;
80586;SDS011;69943;20.850;106.728;2024-03-08T06:18:15;38.80;;;27.10;;
80586;SDS011;69943;20.850;106.728;2024-03-08T06:20:48;37.30;;;27.10;;
80586;SDS011;69943;20.850;106.728;2024-03-08T06:23:20;33.40;;;26.50;;
80586;SDS011;69943;20.850;106.728;2024-03-08T06:25:53;42.20;;;28.80;;
80586;SDS011;69943;20.850;106.728;2024-03-08T06:28:29;36.30;;;27.20;;
80586;SDS011;69943;20.850;106.728;2024-03-08T06:31:01;37.00;;;27.60;;
80586;SDS011;69943;20.850;106.728;2024-03-08T06:33:34;37.00;;;27.00;;
80586;SDS011;69943;20.850;106.728;2024-03-08T06:36:06;38.30;;;27.10;;
80586;SDS011;69943;20.850;106.728;2024-03-08T06:38:40;39.10;;;27.10;;
80586;SDS011;69943;20.850;106.728;2024-03-08T06:41:13;37.50;;;25.80;;
80586;SDS011;69943;20.850;106.728;2024-03-08T06:43:48;40.10;;;26.90;;
80586;SDS011;69943;20.850;106.728;2024-03-08T06:46:23;49.50;;;28.20;;
80586;SDS011;69943;20.850;106.728;2024-03-08T06:48:56;35.40;;;26.80;;
80586;SDS011;69943;20.850;106.728;2024-03-08T06:51:29;38.60;;;27.60;;
80586;SDS011;69943;20.850;106.728;2024-03-08T06:54:01;26.70;;;25.90;;
80586;SDS011;69943;20.850;106.728;2024-03-08T06:56:39;38.20;;;26.70;;
80586;SDS011;69943;20.850;106.728;2024-03-08T06:59:11;35.30;;;27.00;;
80586;SDS011;69943;20.850;106.728;2024-03-08T07:01:43;36.10;;;26.00;;
80586;SDS011;69943;20.850;106.728;2024-03-08T07:04:16;36.20;;;26.70;;
80586;SDS011;69943;20.850;106.728;2024-03-08T07:06:50;35.20;;;27.10;;
80586;SDS011;69943;20.850;106.728;2024-03-08T07:09:26;35.10;;;25.50;;
80586;SDS011;69943;20.850;106.728;2024-03-08T07:11:58;32.60;;;25.50;;
80586;SDS011;69943;20.850;106.728;2024-03-08T07:14:37;39.20;;;27.10;;
80586;SDS011;69943;20.850;106.728;2024-03-08T07:17:11;32.90;;;25.10;;
80586;SDS011;69943;20.850;106.728;2024-03-08T07:19:44;36.50;;;26.50;;
80586;SDS011;69943;20.850;106.728;2024-03-08T07:22:16;37.90;;;25.50;;
80586;SDS011;69943;20.850;106.728;2024-03-08T07:24:48;39.80;;;25.90;;
80586;SDS011;69943;20.850;106.728;2024-03-08T07:27:48;39.10;;;26.20;;
80586;SDS011;69943;20.850;106.728;2024-03-08T07:30:24;33.30;;;25.60;;
80586;SDS011;69943;20.850;106.728;2024-03-08T07:33:15;32.90;;;24.40;;
80586;SDS011;69943;20.850;106.728;2024-03-08T07:35:50;40.00;;;25.50;;
80586;SDS011;69943;20.850;106.728;2024-03-08T07:38:30;33.80;;;24.20;;
80586;SDS011;69943;20.850;106.728;2024-03-08T07:41:12;37.90;;;27.80;;
80586;SDS011;69943;20.850;106.728;2024-03-08T07:43:44;34.10;;;24.50;;
80586;SDS011;69943;20.850;106.728;2024-03-08T07:46:16;35.20;;;25.20;;
80586;SDS011;69943;20.850;106.728;2024-03-08T07:48:52;35.80;;;24.70;;
80586;SDS011;69943;20.850;106.728;2024-03-08T07:51:50;38.00;;;26.00;;
80586;SDS011;69943;20.850;106.728;2024-03-08T07:54:23;36.50;;;25.30;;
80586;SDS011;69943;20.850;106.728;2024-03-08T07:56:56;34.60;;;25.60;;
80586;SDS011;69943;20.850;106.728;2024-03-08T07:59:29;33.00;;;23.20;;
80586;SDS011;69943;20.850;106.728;2024-03-08T08:02:02;34.90;;;24.00;;
80586;SDS011;69943;20.850;106.728;2024-03-08T08:04:35;34.60;;;25.00;;
80586;SDS011;69943;20.850;106.728;2024-03-08T08:07:08;33.10;;;23.30;;
80586;SDS011;69943;20.850;106.728;2024-03-08T08:09:40;34.00;;;24.40;;
80586;SDS011;69943;20.850;106.728;2024-03-08T08:12:13;36.30;;;24.10;;
80586;SDS011;69943;20.850;106.728;2024-03-08T08:14:46;35.30;;;24.20;;
80586;SDS011;69943;20.850;106.728;2024-03-08T08:17:21;38.00;;;24.70;;
80586;SDS011;69943;20.850;106.728;2024-03-08T08:19:55;35.70;;;24.00;;
80586;SDS011;69943;20.850;106.728;2024-03-08T08:22:27;33.20;;;22.80;;
80586;SDS011;69943;20.850;106.728;2024-03-08T08:25:00;36.90;;;24.00;;
80586;SDS011;69943;20.850;106.728;2024-03-08T08:27:37;34.50;;;24.00;;
80586;SDS011;69943;20.850;106.728;2024-03-08T08:30:17;34.60;;;23.10;;
80586;SDS011;69943;20.850;106.728;2024-03-08T08:32:49;39.90;;;23.30;;
80586;SDS011;69943;20.850;106.728;2024-03-08T08:35:22;34.80;;;23.70;;
80586;SDS011;69943;20.850;106.728;2024-03-08T08:37:55;31.10;;;22.80;;
80586;SDS011;69943;20.850;106.728;2024-03-08T08:40:30;35.10;;;23.30;;
80586;SDS011;69943;20.850;106.728;2024-03-08T08:43:02;32.00;;;22.60;;
80586;SDS011;69943;20.850;106.728;2024-03-08T08:45:38;33.20;;;21.30;;
80586;SDS011;69943;20.850;106.728;2024-03-08T08:48:10;36.10;;;24.90;;
80586;SDS011;69943;20.850;106.728;2024-03-08T08:50:42;33.20;;;23.00;;
80586;SDS011;69943;20.850;106.728;2024-03-08T08:53:15;30.90;;;22.20;;
80586;SDS011;69943;20.850;106.728;2024-03-08T08:55:47;33.80;;;21.70;;
80586;SDS011;69943;20.850;106.728;2024-03-08T08:58:20;31.10;;;23.40;;
80586;SDS011;69943;20.850;106.728;2024-03-08T09:00:53;32.20;;;22.90;;
80586;SDS011;69943;20.850;106.728;2024-03-08T09:03:25;36.10;;;22.90;;
80586;SDS011;69943;20.850;106.728;2024-03-08T09:05:58;36.40;;;22.30;;
80586;SDS011;69943;20.850;106.728;2024-03-08T09:08:31;32.80;;;23.90;;
80586;SDS011;69943;20.850;106.728;2024-03-08T09:11:03;34.30;;;23.00;;
80586;SDS011;69943;20.850;106.728;2024-03-08T09:13:36;64.70;;;24.30;;
80586;SDS011;69943;20.850;106.728;2024-03-08T09:16:08;46.60;;;23.70;;
80586;SDS011;69943;20.850;106.728;2024-03-08T09:18:41;38.00;;;23.70;;
80586;SDS011;69943;20.850;106.728;2024-03-08T09:21:13;39.50;;;23.60;;
80586;SDS011;69943;20.850;106.728;2024-03-08T09:23:45;46.90;;;23.10;;
80586;SDS011;69943;20.850;106.728;2024-03-08T09:26:18;40.60;;;21.50;;
80586;SDS011;69943;20.850;106.728;2024-03-08T09:28:51;38.70;;;21.70;;
80586;SDS011;69943;20.850;106.728;2024-03-08T09:31:25;36.80;;;23.20;;
80586;SDS011;69943;20.850;106.728;2024-03-08T09:33:57;42.40;;;22.10;;
80586;SDS011;69943;20.850;106.728;2024-03-08T09:36:30;39.10;;;22.70;;
80586;SDS011;69943;20.850;106.728;2024-03-08T09:39:03;35.20;;;22.00;;
80586;SDS011;69943;20.850;106.728;2024-03-08T09:41:38;32.90;;;21.90;;
80586;SDS011;69943;20.850;106.728;2024-03-08T09:44:10;38.20;;;23.00;;
80586;SDS011;69943;20.850;106.728;2024-03-08T09:46:42;37.10;;;22.90;;
80586;SDS011;69943;20.850;106.728;2024-03-08T09:49:15;34.90;;;21.50;;
80586;SDS011;69943;20.850;106.728;2024-03-08T09:51:47;33.80;;;22.40;;
80586;SDS011;69943;20.850;106.728;2024-03-08T09:54:19;36.70;;;21.20;;
80586;SDS011;69943;20.850;106.728;2024-03-08T09:56:52;38.00;;;21.80;;
80586;SDS011;69943;20.850;106.728;2024-03-08T09:59:25;33.40;;;22.30;;
80586;SDS011;69943;20.850;106.728;2024-03-08T10:01:57;31.90;;;20.60;;
80586;SDS011;69943;20.850;106.728;2024-03-08T10:04:30;32.10;;;21.20;;
80586;SDS011;69943;20.850;106.728;2024-03-08T10:07:02;32.90;;;21.80;;
80586;SDS011;69943;20.850;106.728;2024-03-08T10:09:35;31.70;;;22.90;;
80586;SDS011;69943;20.850;106.728;2024-03-08T10:12:07;34.50;;;21.70;;
80586;SDS011;69943;20.850;106.728;2024-03-08T10:14:40;30.50;;;21.00;;
80586;SDS011;69943;20.850;106.728;2024-03-08T10:17:12;33.20;;;22.00;;
80586;SDS011;69943;20.850;106.728;2024-03-08T10:19:51;30.10;;;21.10;;
80586;SDS011;69943;20.850;106.728;2024-03-08T10:22:24;37.50;;;22.20;;
80586;SDS011;69943;20.850;106.728;2024-03-08T10:24:57;34.90;;;21.50;;
80586;SDS011;69943;20.850;106.728;2024-03-08T10:27:29;31.80;;;22.80;;
80586;SDS011;69943;20.850;106.728;2024-03-08T10:30:02;34.10;;;22.30;;
80586;SDS011;69943;20.850;106.728;2024-03-08T10:32:38;31.30;;;21.70;;
80586;SDS011;69943;20.850;106.728;2024-03-08T10:35:12;30.80;;;21.40;;
80586;SDS011;69943;20.850;106.728;2024-03-08T10:37:45;32.80;;;22.20;;
80586;SDS011;69943;20.850;106.728;2024-03-08T10:40:29;30.80;;;22.40;;
80586;SDS011;69943;20.850;106.728;2024-03-08T10:43:02;31.60;;;21.00;;
80586;SDS011;69943;20.850;106.728;2024-03-08T10:50:53;34.70;;;23.60;;
80586;SDS011;69943;20.850;106.728;2024-03-08T10:53:28;34.70;;;22.70;;
80586;SDS011;69943;20.850;106.728;2024-03-08T10:56:01;32.60;;;22.70;;
80586;SDS011;69943;20.850;106.728;2024-03-08T10:58:34;31.30;;;22.40;;
80586;SDS011;69943;20.850;106.728;2024-03-08T11:01:07;39.20;;;22.60;;
80586;SDS011;69943;20.850;106.728;2024-03-08T11:06:23;32.70;;;22.30;;
80586;SDS011;69943;20.850;106.728;2024-03-08T11:12:23;39.50;;;22.50;;
80586;SDS011;69943;20.850;106.728;2024-03-08T11:14:57;34.80;;;23.60;;
80586;SDS011;69943;20.850;106.728;2024-03-08T11:20:15;32.00;;;24.10;;
80586;SDS011;69943;20.850;106.728;2024-03-08T11:22:48;32.10;;;22.30;;
80586;SDS011;69943;20.850;106.728;2024-03-08T11:28:17;38.00;;;24.80;;
80586;SDS011;69943;20.850;106.728;2024-03-08T11:33:32;33.10;;;24.10;;
80586;SDS011;69943;20.850;106.728;2024-03-08T11:36:40;33.80;;;25.70;;
80586;SDS011;69943;20.850;106.728;2024-03-08T11:39:06;33.40;;;25.70;;
80586;SDS011;69943;20.850;106.728;2024-03-08T11:41:45;32.50;;;23.70;;
80586;SDS011;69943;20.850;106.728;2024-03-08T11:44:17;33.90;;;23.80;;
80586;SDS011;69943;20.850;106.728;2024-03-08T11:46:51;38.90;;;24.40;;
80586;SDS011;69943;20.850;106.728;2024-03-08T11:49:23;31.90;;;23.30;;
80586;SDS011;69943;20.850;106.728;2024-03-08T11:51:56;40.60;;;25.50;;
80586;SDS011;69943;20.850;106.728;2024-03-08T11:54:28;32.90;;;24.00;;
80586;SDS011;69943;20.850;106.728;2024-03-08T11:57:00;35.70;;;25.10;;
80586;SDS011;69943;20.850;106.728;2024-03-08T11:59:32;32.80;;;25.60;;
80586;SDS011;69943;20.850;106.728;2024-03-08T12:02:05;34.90;;;26.70;;
80586;SDS011;69943;20.850;106.728;2024-03-08T12:04:41;38.20;;;26.90;;
80586;SDS011;69943;20.850;106.728;2024-03-08T12:07:13;37.30;;;26.90;;
80586;SDS011;69943;20.850;106.728;2024-03-08T12:12:50;37.30;;;28.20;;
80586;SDS011;69943;20.850;106.728;2024-03-08T12:15:24;33.90;;;26.60;;
80586;SDS011;69943;20.850;106.728;2024-03-08T12:17:56;40.20;;;27.00;;
80586;SDS011;69943;20.850;106.728;2024-03-08T12:20:28;34.60;;;26.30;;
80586;SDS011;69943;20.850;106.728;2024-03-08T12:23:01;38.30;;;26.60;;
80586;SDS011;69943;20.850;106.728;2024-03-08T12:25:34;35.60;;;26.60;;
80586;SDS011;69943;20.850;106.728;2024-03-08T12:28:09;44.10;;;26.60;;
80586;SDS011;69943;20.850;106.728;2024-03-08T12:30:49;35.60;;;27.40;;
80586;SDS011;69943;20.850;106.728;2024-03-08T12:33:24;35.20;;;25.90;;
80586;SDS011;69943;20.850;106.728;2024-03-08T12:35:56;37.10;;;26.20;;
80586;SDS011;69943;20.850;106.728;2024-03-08T12:38:29;36.80;;;26.10;;
80586;SDS011;69943;20.850;106.728;2024-03-08T12:41:02;34.50;;;25.10;;
80586;SDS011;69943;20.850;106.728;2024-03-08T12:43:35;34.70;;;24.20;;
80586;SDS011;69943;20.850;106.728;2024-03-08T12:46:07;32.70;;;23.00;;
80586;SDS011;69943;20.850;106.728;2024-03-08T12:48:40;33.00;;;24.30;;
80586;SDS011;69943;20.850;106.728;2024-03-08T12:51:12;33.30;;;23.90;;
80586;SDS011;69943;20.850;106.728;2024-03-08T12:53:46;32.50;;;23.70;;
80586;SDS011;69943;20.850;106.728;2024-03-08T12:56:31;32.00;;;23.40;;
80586;SDS011;69943;20.850;106.728;2024-03-08T12:59:04;28.90;;;22.60;;
80586;SDS011;69943;20.850;106.728;2024-03-08T13:01:47;30.00;;;21.90;;
80586;SDS011;69943;20.850;106.728;2024-03-08T13:04:21;33.60;;;23.80;;
80586;SDS011;69943;20.850;106.728;2024-03-08T13:06:53;32.40;;;22.50;;
80586;SDS011;69943;20.850;106.728;2024-03-08T13:09:26;28.30;;;21.80;;
80586;SDS011;69943;20.850;106.728;2024-03-08T13:11:58;33.40;;;24.40;;
80586;SDS011;69943;20.850;106.728;2024-03-08T13:14:31;33.80;;;23.70;;
80586;SDS011;69943;20.850;106.728;2024-03-08T13:17:06;27.20;;;22.40;;
80586;SDS011;69943;20.850;106.728;2024-03-08T13:19:41;33.20;;;24.00;;
80586;SDS011;69943;20.850;106.728;2024-03-08T13:22:16;32.20;;;22.60;;
80586;SDS011;69943;20.850;106.728;2024-03-08T13:24:49;30.40;;;22.60;;
80586;SDS011;69943;20.850;106.728;2024-03-08T13:27:23;28.90;;;21.50;;
80586;SDS011;69943;20.850;106.728;2024-03-08T13:29:55;29.40;;;21.30;;
80586;SDS011;69943;20.850;106.728;2024-03-08T13:32:28;30.20;;;22.50;;
80586;SDS011;69943;20.850;106.728;2024-03-08T13:35:02;30.50;;;22.40;;
80586;SDS011;69943;20.850;106.728;2024-03-08T13:37:35;32.40;;;22.60;;
80586;SDS011;69943;20.850;106.728;2024-03-08T13:40:08;26.30;;;21.10;;
80586;SDS011;69943;20.850;106.728;2024-03-08T13:42:50;27.70;;;21.70;;
80586;SDS011;69943;20.850;106.728;2024-03-08T13:45:22;28.50;;;21.50;;
80586;SDS011;69943;20.850;106.728;2024-03-08T13:47:54;28.30;;;20.50;;
80586;SDS011;69943;20.850;106.728;2024-03-08T13:50:27;29.40;;;21.40;;
80586;SDS011;69943;20.850;106.728;2024-03-08T13:53:00;25.10;;;20.20;;
80586;SDS011;69943;20.850;106.728;2024-03-08T13:55:34;27.30;;;19.90;;
80586;SDS011;69943;20.850;106.728;2024-03-08T13:58:07;26.50;;;20.90;;
80586;SDS011;69943;20.850;106.728;2024-03-08T14:00:40;26.10;;;20.80;;
80586;SDS011;69943;20.850;106.728;2024-03-08T14:03:14;27.10;;;20.60;;
80586;SDS011;69943;20.850;106.728;2024-03-08T14:05:51;27.20;;;20.60;;
80586;SDS011;69943;20.850;106.728;2024-03-08T14:08:26;33.70;;;20.40;;
80586;SDS011;69943;20.850;106.728;2024-03-08T14:10:58;27.70;;;19.70;;
80586;SDS011;69943;20.850;106.728;2024-03-08T14:13:40;26.00;;;20.60;;
80586;SDS011;69943;20.850;106.728;2024-03-08T14:16:16;27.50;;;19.70;;
80586;SDS011;69943;20.850;106.728;2024-03-08T14:18:50;27.40;;;19.70;;
80586;SDS011;69943;20.850;106.728;2024-03-08T14:21:22;26.20;;;20.20;;
80586;SDS011;69943;20.850;106.728;2024-03-08T14:23:58;25.00;;;19.70;;
80586;SDS011;69943;20.850;106.728;2024-03-08T14:26:32;27.00;;;20.00;;
80586;SDS011;69943;20.850;106.728;2024-03-08T14:29:04;22.40;;;18.40;;
80586;SDS011;69943;20.850;106.728;2024-03-08T14:31:37;24.60;;;19.00;;
80586;SDS011;69943;20.850;106.728;2024-03-08T14:34:11;23.50;;;19.50;;
80586;SDS011;69943;20.850;106.728;2024-03-08T14:36:48;26.80;;;19.30;;
80586;SDS011;69943;20.850;106.728;2024-03-08T14:39:21;27.60;;;19.70;;
80586;SDS011;69943;20.850;106.728;2024-03-08T14:41:57;22.60;;;17.80;;
80586;SDS011;69943;20.850;106.728;2024-03-08T14:44:30;23.20;;;18.00;;
80586;SDS011;69943;20.850;106.728;2024-03-08T14:47:04;25.30;;;19.50;;
80586;SDS011;69943;20.850;106.728;2024-03-08T14:49:38;24.70;;;19.70;;
80586;SDS011;69943;20.850;106.728;2024-03-08T14:52:11;24.90;;;19.00;;
80586;SDS011;69943;20.850;106.728;2024-03-08T14:55:00;23.80;;;19.50;;